Time;durP1;ratioP1;P1;durP2;ratioP2;P2;SDS_P1;SDS_P2;PMS_P1;PMS_P2;Temp;Humidity;BMP_temperature;BMP_pressure;BME280_temperature;BME280_humidity;BME280_pressure;Samples;Min_cycle;Max_cycle;Signal;HPM_P1;HPM_P2
2022/05/20 00:00:32;;;;;;;32.33;23.10;;;17.00;99.90;;;;;;5027513;28;20056;-59
2022/05/20 00:02:57;;;;;;;30.55;22.23;;;17.00;99.90;;;;;;5022302;28;20021;-58
2022/05/20 00:05:23;;;;;;;27.63;21.67;;;17.00;99.90;;;;;;5018772;28;20026;-59
2022/05/20 00:07:49;;;;;;;32.53;26.95;;;17.00;99.90;;;;;;5020778;28;20053;-57
2022/05/20 00:10:16;;;;;;;30.27;24.40;;;17.00;99.90;;;;;;5021636;28;20251;-61
2022/05/20 00:12:42;;;;;;;33.50;26.42;;;16.90;99.90;;;;;;5022224;28;20032;-59
2022/05/20 00:15:09;;;;;;;32.92;25.65;;;16.80;99.90;;;;;;5008108;28;20141;-57
2022/05/20 00:17:35;;;;;;;35.03;25.85;;;16.70;99.90;;;;;;5019261;28;20068;-58
2022/05/20 00:20:03;;;;;;;40.42;26.17;;;16.60;99.90;;;;;;5016364;28;20081;-60
2022/05/20 00:22:29;;;;;;;49.75;29.55;;;16.50;99.90;;;;;;5016728;28;20045;-59
2022/05/20 00:27:38;;;;;;;34.20;26.38;;;16.50;99.90;;;;;;5029408;28;20056;-59
2022/05/20 00:30:05;;;;;;;37.00;30.00;;;16.40;99.90;;;;;;5026148;28;20476;-59
2022/05/20 00:32:30;;;;;;;40.95;29.80;;;16.50;99.90;;;;;;5025599;28;20092;-59
2022/05/20 00:34:56;;;;;;;44.10;31.17;;;16.60;99.90;;;;;;5022180;28;20538;-58
2022/05/20 00:37:21;;;;;;;42.00;32.50;;;16.60;99.90;;;;;;5028524;28;20025;-58
2022/05/20 00:39:47;;;;;;;43.75;32.92;;;16.70;99.90;;;;;;5018676;28;20045;-59
2022/05/20 00:42:16;;;;;;;45.42;31.50;;;16.70;99.90;;;;;;5020301;28;20407;-58
2022/05/20 00:44:42;;;;;;;37.85;28.80;;;16.70;99.90;;;;;;5028235;28;20037;-59
2022/05/20 00:47:10;;;;;;;36.38;29.05;;;16.80;99.90;;;;;;5026917;28;20164;-59
2022/05/20 00:49:36;;;;;;;37.03;28.13;;;16.80;99.90;;;;;;5024285;28;20573;-58
2022/05/20 00:52:03;;;;;;;37.45;29.23;;;16.80;99.90;;;;;;5006866;28;20091;-58
2022/05/20 00:54:35;;;;;;;35.45;26.70;;;16.90;99.90;;;;;;5025855;28;20029;-59
2022/05/20 00:57:15;;;;;;;40.60;28.85;;;16.90;99.90;;;;;;5025989;28;20030;-57
2022/05/20 00:59:46;;;;;;;36.70;27.50;;;16.90;99.90;;;;;;5024526;28;20049;-59
2022/05/20 01:02:19;;;;;;;32.05;27.33;;;16.90;99.90;;;;;;5020851;28;20025;-58
2022/05/20 01:04:46;;;;;;;34.08;27.48;;;16.90;99.90;;;;;;5015609;28;20040;-59
2022/05/20 01:07:13;;;;;;;41.45;26.02;;;16.90;99.90;;;;;;5024452;28;20084;-59
2022/05/20 01:09:39;;;;;;;36.13;27.75;;;17.00;99.90;;;;;;5024798;28;20113;-59
2022/05/20 01:12:06;;;;;;;38.05;28.17;;;17.00;99.90;;;;;;5022492;28;20495;-58
2022/05/20 01:14:32;;;;;;;34.13;27.27;;;16.90;99.90;;;;;;5007735;28;20096;-59
2022/05/20 01:16:58;;;;;;;37.60;27.52;;;16.90;99.90;;;;;;5022851;28;20038;-59
2022/05/20 01:19:40;;;;;;;35.30;27.58;;;17.00;99.90;;;;;;5026039;28;20455;-59
2022/05/20 01:22:10;;;;;;;39.90;27.45;;;16.90;99.90;;;;;;5026307;28;20025;-58
2022/05/20 01:24:36;;;;;;;32.80;26.40;;;16.90;99.90;;;;;;5022610;28;20037;-59
2022/05/20 01:27:02;;;;;;;32.53;23.77;;;17.00;99.90;;;;;;5030348;28;20671;-59
2022/05/20 01:29:27;;;;;;;34.60;25.38;;;16.90;99.90;;;;;;5031212;28;20112;-58
2022/05/20 01:31:53;;;;;;;36.25;26.60;;;16.90;99.90;;;;;;5031935;28;20495;-59
2022/05/20 01:34:20;;;;;;;31.58;25.73;;;16.90;99.90;;;;;;5033750;28;20025;-57
2022/05/20 01:36:46;;;;;;;42.58;28.35;;;16.90;99.90;;;;;;5031376;28;20034;-59
2022/05/20 01:39:12;;;;;;;37.30;28.83;;;16.90;99.90;;;;;;5032270;28;20033;-57
2022/05/20 01:41:40;;;;;;;32.53;26.88;;;16.90;99.90;;;;;;5029793;28;20033;-58
2022/05/20 01:44:39;;;;;;;33.88;25.90;;;16.80;99.90;;;;;;5032166;28;20028;-59
2022/05/20 01:47:25;;;;;;;37.45;28.23;;;16.80;99.90;;;;;;5026827;28;20100;-59
2022/05/20 01:49:58;;;;;;;34.85;27.05;;;16.80;99.90;;;;;;5028078;28;20033;-59
2022/05/20 01:52:46;;;;;;;35.90;29.60;;;16.80;99.90;;;;;;5028418;28;20475;-59
2022/05/20 01:55:40;;;;;;;38.92;29.50;;;16.80;99.90;;;;;;5028263;28;20044;-59
2022/05/20 01:58:19;;;;;;;40.97;27.63;;;16.80;99.90;;;;;;5028541;28;20417;-59
2022/05/20 02:00:47;;;;;;;31.85;25.52;;;16.80;99.90;;;;;;5027589;28;20037;-59
2022/05/20 02:03:37;;;;;;;34.00;26.65;;;16.80;99.90;;;;;;5024369;28;20025;-59
2022/05/20 02:06:10;;;;;;;39.72;29.30;;;16.80;99.90;;;;;;5027817;28;20037;-59
2022/05/20 02:08:53;;;;;;;35.27;27.17;;;16.80;99.90;;;;;;5031631;28;20430;-59
2022/05/20 02:11:25;;;;;;;37.10;29.20;;;16.90;99.90;;;;;;5028870;28;20025;-59
2022/05/20 02:13:59;;;;;;;37.15;28.15;;;16.80;99.90;;;;;;5015339;28;20045;-58
2022/05/20 02:16:36;;;;;;;31.23;26.63;;;16.80;99.90;;;;;;5031089;28;20035;-57
2022/05/20 02:19:17;;;;;;;39.35;28.77;;;16.90;99.90;;;;;;5031675;28;20084;-59
2022/05/20 02:21:49;;;;;;;38.28;27.25;;;16.80;99.90;;;;;;5021598;28;20153;-59
2022/05/20 02:24:21;;;;;;;46.80;29.33;;;16.80;99.90;;;;;;5017568;28;20029;-58
2022/05/20 02:26:52;;;;;;;42.15;28.35;;;16.80;99.90;;;;;;5038936;28;20017;-59
2022/05/20 02:29:23;;;;;;;38.90;28.40;;;16.80;99.90;;;;;;5031537;28;20036;-58
2022/05/20 02:32:05;;;;;;;36.88;28.10;;;16.70;99.90;;;;;;5029409;28;20037;-59
2022/05/20 02:34:34;;;;;;;40.45;29.05;;;16.80;99.90;;;;;;5031170;28;20025;-59
2022/05/20 02:37:19;;;;;;;39.35;28.70;;;16.80;99.90;;;;;;5031326;28;20029;-58
2022/05/20 02:39:45;;;;;;;36.95;27.25;;;16.80;99.90;;;;;;5027493;28;20097;-59
2022/05/20 02:42:10;;;;;;;35.10;28.08;;;16.80;99.90;;;;;;5030193;28;20128;-59
2022/05/20 02:44:36;;;;;;;46.72;29.70;;;16.80;99.90;;;;;;5023935;28;20022;-59
2022/05/20 02:47:03;;;;;;;40.45;29.83;;;16.80;99.90;;;;;;5026425;28;20028;-59
2022/05/20 02:49:29;;;;;;;40.13;27.73;;;16.70;99.90;;;;;;5021025;28;20025;-57
2022/05/20 02:51:54;;;;;;;40.22;27.50;;;16.80;99.90;;;;;;5028829;28;20529;-58
2022/05/20 02:54:20;;;;;;;35.75;27.95;;;16.80;99.90;;;;;;5027060;28;20033;-59
2022/05/20 02:56:45;;;;;;;34.08;26.48;;;16.80;99.90;;;;;;5022705;28;20196;-59
2022/05/20 03:04:40;;;;;;;37.63;29.27;;;16.80;99.90;;;;;;5020614;28;20402;-59
2022/05/20 03:07:06;;;;;;;48.30;32.70;;;16.80;99.90;;;;;;5016243;28;20030;-59
2022/05/20 03:09:32;;;;;;;44.38;33.13;;;16.80;99.90;;;;;;5020510;28;20032;-58
2022/05/20 03:11:57;;;;;;;45.42;32.00;;;16.80;99.90;;;;;;5029032;28;20056;-58
2022/05/20 03:14:24;;;;;;;43.20;31.23;;;16.80;99.90;;;;;;5013011;28;20041;-58
2022/05/20 03:16:50;;;;;;;47.92;31.65;;;16.80;99.90;;;;;;5030030;28;20368;-58
2022/05/20 03:19:17;;;;;;;49.38;31.40;;;16.90;99.90;;;;;;5030996;28;20060;-59
2022/05/20 03:21:43;;;;;;;49.47;32.47;;;16.80;99.90;;;;;;5028017;28;20120;-58
2022/05/20 03:24:10;;;;;;;42.13;31.52;;;16.80;99.90;;;;;;5025691;28;20097;-58
2022/05/20 03:26:36;;;;;;;41.67;30.27;;;16.80;99.90;;;;;;5024824;28;20056;-59
2022/05/20 03:29:03;;;;;;;45.35;31.88;;;16.80;99.90;;;;;;5025433;28;20479;-58
2022/05/20 03:31:34;;;;;;;44.17;32.25;;;16.70;99.90;;;;;;5024312;28;20057;-56
2022/05/20 03:34:05;;;;;;;47.67;32.42;;;16.80;99.90;;;;;;5021478;28;20025;-57
2022/05/20 03:36:35;;;;;;;50.90;31.95;;;16.70;99.90;;;;;;5030233;28;20045;-57
2022/05/20 03:39:01;;;;;;;48.47;33.72;;;16.70;99.90;;;;;;5030993;28;20021;-57
2022/05/20 03:41:27;;;;;;;43.42;32.55;;;16.70;99.90;;;;;;5028945;28;20025;-59
2022/05/20 03:43:52;;;;;;;51.47;36.85;;;16.60;99.90;;;;;;5020449;28;20374;-59
2022/05/20 03:46:18;;;;;;;53.30;37.33;;;16.60;99.90;;;;;;5028427;28;20370;-57
2022/05/20 03:48:43;;;;;;;52.33;37.05;;;16.60;99.90;;;;;;5027866;28;20579;-59
2022/05/20 03:51:11;;;;;;;58.22;38.65;;;16.60;99.90;;;;;;5020115;28;20383;-58
2022/05/20 03:53:37;;;;;;;59.90;38.20;;;16.60;99.90;;;;;;5020231;28;20049;-59
2022/05/20 03:56:04;;;;;;;59.90;37.47;;;16.60;99.90;;;;;;5026685;28;20029;-60
2022/05/20 03:58:29;;;;;;;66.30;40.85;;;16.60;99.90;;;;;;5027658;28;20037;-59
2022/05/20 04:03:43;;;;;;;65.50;39.63;;;16.60;99.90;;;;;;5018872;28;20071;-58
2022/05/20 04:06:09;;;;;;;62.70;39.58;;;16.60;99.90;;;;;;5019282;28;20028;-57
2022/05/20 04:08:35;;;;;;;115.95;41.38;;;16.70;99.90;;;;;;5028979;28;20029;-58
2022/05/20 04:11:00;;;;;;;66.53;38.80;;;16.70;99.90;;;;;;5024614;28;20026;-58
2022/05/20 04:13:26;;;;;;;62.17;38.45;;;16.70;99.90;;;;;;5022722;28;20030;-61
2022/05/20 04:15:54;;;;;;;71.97;37.63;;;16.70;99.90;;;;;;5004627;28;20049;-58
2022/05/20 04:18:20;;;;;;;58.47;37.20;;;16.80;99.90;;;;;;5025346;28;20021;-59
2022/05/20 04:20:46;;;;;;;60.22;36.83;;;16.80;99.90;;;;;;5027621;28;20033;-58
2022/05/20 04:23:11;;;;;;;56.47;36.60;;;16.80;99.90;;;;;;5027016;28;20026;-59
2022/05/20 04:25:37;;;;;;;48.67;31.92;;;16.90;99.90;;;;;;5026432;28;20176;-58
2022/05/20 04:28:02;;;;;;;49.47;31.33;;;16.80;99.90;;;;;;5028320;28;20347;-59
2022/05/20 04:30:28;;;;;;;48.30;31.80;;;16.80;99.90;;;;;;5019006;28;20538;-59
2022/05/20 04:32:54;;;;;;;49.40;31.67;;;16.90;99.90;;;;;;5029529;28;20400;-57
2022/05/20 04:35:19;;;;;;;61.15;36.08;;;16.90;99.90;;;;;;5026470;28;20648;-58
2022/05/20 04:37:45;;;;;;;44.78;33.72;;;16.90;99.90;;;;;;5021752;28;20033;-59
2022/05/20 04:40:11;;;;;;;54.33;33.80;;;16.90;99.90;;;;;;5027247;28;20060;-58
2022/05/20 04:48:06;;;;;;;52.17;31.55;;;17.00;99.90;;;;;;5028414;28;20075;-59
2022/05/20 04:50:32;;;;;;;52.25;33.15;;;17.00;99.90;;;;;;5023833;28;20480;-57
2022/05/20 04:52:57;;;;;;;52.90;35.97;;;17.00;99.90;;;;;;5024928;28;20117;-57
2022/05/20 04:55:23;;;;;;;62.50;37.55;;;17.00;99.90;;;;;;5031433;28;20044;-59
2022/05/20 04:57:51;;;;;;;61.88;36.42;;;17.00;99.90;;;;;;5032505;28;20042;-58
2022/05/20 05:00:25;;;;;;;58.25;39.92;;;17.00;99.90;;;;;;5024809;28;20495;-58
2022/05/20 05:02:52;;;;;;;60.67;39.22;;;17.10;99.90;;;;;;5026266;28;20037;-59
2022/05/20 05:05:23;;;;;;;61.95;37.75;;;17.10;99.90;;;;;;5027481;28;20454;-58
2022/05/20 05:07:51;;;;;;;53.60;37.25;;;17.20;99.90;;;;;;5026510;28;20538;-59
2022/05/20 05:10:19;;;;;;;66.32;40.50;;;17.20;99.90;;;;;;5031204;28;20053;-59
2022/05/20 05:12:45;;;;;;;53.70;35.80;;;17.30;99.90;;;;;;5027195;28;20044;-59
2022/05/20 05:15:12;;;;;;;55.17;37.13;;;17.40;99.90;;;;;;5007336;28;20120;-58
2022/05/20 05:20:25;;;;;;;62.25;40.65;;;17.50;99.90;;;;;;5028191;28;20068;-58
2022/05/20 05:22:53;;;;;;;55.50;36.72;;;17.50;99.90;;;;;;5020121;28;20036;-59
2022/05/20 05:25:24;;;;;;;55.58;37.28;;;17.50;99.90;;;;;;5025870;28;20034;-59
2022/05/20 05:27:49;;;;;;;51.78;34.70;;;17.60;99.90;;;;;;5032077;28;20043;-57
2022/05/20 05:30:16;;;;;;;58.53;36.80;;;17.60;99.90;;;;;;5028901;28;20108;-57
2022/05/20 05:32:42;;;;;;;60.80;36.80;;;17.70;99.90;;;;;;5024339;28;20021;-59
2022/05/20 05:35:10;;;;;;;58.88;35.53;;;17.70;99.90;;;;;;5022208;28;20046;-59
2022/05/20 05:37:38;;;;;;;54.28;32.85;;;17.70;99.90;;;;;;5028596;28;20522;-59
2022/05/20 05:40:05;;;;;;;47.92;33.10;;;17.80;99.90;;;;;;5031169;28;20022;-59
2022/05/20 05:42:32;;;;;;;50.53;32.67;;;17.90;99.90;;;;;;5028634;28;20038;-59
2022/05/20 05:44:58;;;;;;;52.25;33.35;;;17.90;99.90;;;;;;5029936;28;20013;-59
2022/05/20 05:47:24;;;;;;;47.42;32.58;;;17.90;99.90;;;;;;5030264;28;20030;-58
2022/05/20 05:49:49;;;;;;;56.63;36.70;;;18.00;99.90;;;;;;5030694;28;20035;-58
2022/05/20 05:52:15;;;;;;;58.05;36.42;;;17.90;99.90;;;;;;5028605;28;20041;-59
2022/05/20 05:54:40;;;;;;;52.42;33.63;;;17.90;99.90;;;;;;5028826;28;20159;-59
2022/05/20 05:57:06;;;;;;;52.60;33.88;;;17.90;99.90;;;;;;5025490;28;20108;-58
2022/05/20 05:59:32;;;;;;;63.83;36.40;;;17.90;99.90;;;;;;5022565;28;20021;-58
2022/05/20 06:01:59;;;;;;;64.90;37.22;;;17.90;99.90;;;;;;5024392;28;20030;-59
2022/05/20 06:04:26;;;;;;;69.10;38.03;;;17.90;99.90;;;;;;5030403;28;20052;-59
2022/05/20 06:06:52;;;;;;;62.65;34.58;;;18.00;99.90;;;;;;5026276;28;20028;-59
2022/05/20 06:09:18;;;;;;;68.57;35.67;;;18.00;99.90;;;;;;5013049;28;20112;-59
2022/05/20 06:11:43;;;;;;;71.65;34.65;;;17.90;99.90;;;;;;5028547;28;20029;-57
2022/05/20 06:14:09;;;;;;;65.28;35.88;;;18.00;99.90;;;;;;5030525;28;20025;-59
2022/05/20 06:16:35;;;;;;;73.63;37.45;;;18.10;99.90;;;;;;5013262;28;20076;-59
2022/05/20 06:19:00;;;;;;;65.50;37.00;;;18.20;99.90;;;;;;5031454;28;20033;-59
2022/05/20 06:21:29;;;;;;;69.43;36.95;;;18.10;99.90;;;;;;5026941;28;20576;-59
2022/05/20 06:23:54;;;;;;;64.88;35.13;;;18.20;99.90;;;;;;5027185;28;20028;-59
2022/05/20 06:26:20;;;;;;;73.18;35.45;;;18.30;99.90;;;;;;5024218;28;20029;-59
2022/05/20 06:28:46;;;;;;;67.38;35.63;;;18.30;99.90;;;;;;5030402;28;20037;-59
2022/05/20 06:31:12;;;;;;;72.72;35.80;;;18.40;99.90;;;;;;5027803;28;20498;-59
2022/05/20 06:33:38;;;;;;;66.50;35.38;;;18.40;99.90;;;;;;5030076;28;20038;-59
2022/05/20 06:41:32;;;;;;;;;;;18.80;99.90;;;;;;5026137;28;20037;-57
2022/05/20 06:43:58;;;;;;;69.78;34.67;;;18.90;99.90;;;;;;5025802;28;19909;-59
2022/05/20 06:46:24;;;;;;;64.80;34.22;;;18.90;99.90;;;;;;5022861;28;20053;-59
2022/05/20 06:48:53;;;;;;;59.03;33.67;;;18.90;99.90;;;;;;5025497;28;20034;-59
2022/05/20 06:51:24;;;;;;;65.25;35.95;;;18.80;99.90;;;;;;5019083;28;20100;-58
2022/05/20 06:53:54;;;;;;;68.93;35.75;;;18.90;99.90;;;;;;5017479;28;20431;-58
2022/05/20 06:56:22;;;;;;;62.28;35.83;;;18.80;99.90;;;;;;5023297;28;20398;-58
2022/05/20 06:58:47;;;;;;;71.25;35.28;;;18.80;99.90;;;;;;5011058;28;20030;-59
2022/05/20 07:01:14;;;;;;;60.83;34.22;;;19.00;99.90;;;;;;5018691;28;20041;-59
2022/05/20 07:03:39;;;;;;;61.53;33.75;;;19.20;99.90;;;;;;5025278;28;20034;-57
2022/05/20 07:06:07;;;;;;;58.45;34.22;;;19.40;99.90;;;;;;5019992;28;20399;-59
2022/05/20 07:08:34;;;;;;;56.53;33.55;;;19.50;99.90;;;;;;5022246;28;20033;-60
2022/05/20 07:11:02;;;;;;;51.72;32.80;;;19.60;99.90;;;;;;5022641;28;20030;-59
2022/05/20 07:13:31;;;;;;;55.22;33.90;;;19.50;99.90;;;;;;5013748;28;20026;-59
2022/05/20 07:15:58;;;;;;;51.55;30.10;;;19.60;99.90;;;;;;4996843;28;20048;-59
2022/05/20 07:18:25;;;;;;;47.53;30.98;;;20.10;99.90;;;;;;5020656;28;20022;-59
2022/05/20 07:20:51;;;;;;;47.03;30.98;;;20.40;99.90;;;;;;5019539;28;20491;-58
2022/05/20 07:23:16;;;;;;;40.38;29.25;;;20.60;99.90;;;;;;5029403;28;20032;-58
2022/05/20 07:25:42;;;;;;;46.65;29.13;;;21.00;99.90;;;;;;5029409;28;20034;-59
2022/05/20 07:28:07;;;;;;;42.03;28.00;;;21.30;99.90;;;;;;5021976;28;20377;-58
2022/05/20 07:30:34;;;;;;;35.85;26.95;;;21.60;99.90;;;;;;5023646;28;20055;-58
2022/05/20 07:32:59;;;;;;;32.08;24.23;;;21.50;99.90;;;;;;5022910;28;20469;-58
2022/05/20 07:35:25;;;;;;;34.25;25.50;;;21.60;99.90;;;;;;5019892;28;20065;-59
2022/05/20 07:37:51;;;;;;;38.70;27.00;;;21.80;99.90;;;;;;5027908;28;20025;-60
2022/05/20 07:40:17;;;;;;;35.33;23.50;;;22.80;99.90;;;;;;5021834;28;20040;-60
2022/05/20 07:42:42;;;;;;;30.67;25.00;;;23.90;99.90;;;;;;5027283;28;20499;-59
2022/05/20 07:45:08;;;;;;;27.55;23.38;;;23.60;99.90;;;;;;5021986;28;20082;-60
2022/05/20 07:47:34;;;;;;;27.75;22.85;;;23.70;99.90;;;;;;5028180;28;20030;-60
2022/05/20 07:50:00;;;;;;;28.73;23.08;;;24.40;99.90;;;;;;5021777;28;20026;-60
2022/05/20 07:55:10;;;;;;;22.10;18.55;;;25.70;99.90;;;;;;5028724;28;20033;-60
2022/05/20 07:57:38;;;;;;;23.50;18.95;;;26.80;99.90;;;;;;5021145;28;20037;-60
2022/05/20 08:00:06;;;;;;;20.30;16.92;;;27.50;95.90;;;;;;5020687;28;20503;-58
2022/05/20 08:02:32;;;;;;;19.13;14.00;;;27.70;95.40;;;;;;5024396;28;20090;-60
2022/05/20 08:05:01;;;;;;;18.30;14.02;;;28.90;92.00;;;;;;5022324;28;20036;-56
2022/05/20 08:07:42;;;;;;;21.48;15.05;;;29.30;92.00;;;;;;5016470;28;20036;-60
2022/05/20 08:10:22;;;;;;;15.50;12.77;;;29.80;90.70;;;;;;5027716;28;20052;-61
2022/05/20 08:12:49;;;;;;;14.63;10.93;;;30.30;85.80;;;;;;5028699;28;20025;-60
2022/05/20 08:15:15;;;;;;;14.68;12.27;;;30.70;85.00;;;;;;5013331;28;20087;-58
2022/05/20 08:17:43;;;;;;;12.93;10.65;;;30.70;86.70;;;;;;5028437;28;20029;-59
2022/05/20 08:20:16;;;;;;;12.73;11.40;;;30.20;83.60;;;;;;5028980;28;20032;-60
2022/05/20 08:22:41;;;;;;;14.18;11.18;;;29.50;85.00;;;;;;5028117;28;20026;-59
2022/05/20 08:25:07;;;;;;;15.50;10.10;;;28.70;87.80;;;;;;5020299;28;20045;-60
2022/05/20 08:27:33;;;;;;;10.02;8.45;;;27.90;90.60;;;;;;5025105;28;20072;-59
2022/05/20 08:30:11;;;;;;;9.52;8.23;;;27.40;91.20;;;;;;5022035;28;20042;-60
2022/05/20 08:32:37;;;;;;;16.27;7.85;;;27.20;91.10;;;;;;5022506;28;20040;-59
2022/05/20 08:35:04;;;;;;;13.48;7.07;;;27.30;93.80;;;;;;5028164;28;20022;-60
2022/05/20 08:37:29;;;;;;;10.48;7.18;;;27.80;92.60;;;;;;5029959;28;20069;-60
2022/05/20 08:39:55;;;;;;;9.75;6.88;;;27.60;92.40;;;;;;5029227;28;20180;-60
2022/05/20 08:42:23;;;;;;;11.07;7.28;;;27.40;93.50;;;;;;5029277;28;20525;-60
2022/05/20 08:44:49;;;;;;;8.07;7.32;;;27.40;93.50;;;;;;5027480;28;20034;-59
2022/05/20 08:47:21;;;;;;;8.48;6.57;;;27.40;92.00;;;;;;5029363;28;20036;-60
2022/05/20 08:49:47;;;;;;;10.20;7.22;;;27.80;92.70;;;;;;5021505;28;20018;-60
2022/05/20 08:52:13;;;;;;;9.93;6.57;;;28.10;92.40;;;;;;5025828;28;20048;-60
2022/05/20 08:54:41;;;;;;;8.23;5.90;;;28.20;91.50;;;;;;5030674;28;20033;-59
2022/05/20 08:57:15;;;;;;;11.55;6.32;;;28.90;91.40;;;;;;5032691;28;20033;-60
2022/05/20 08:59:40;;;;;;;12.57;6.88;;;29.00;90.10;;;;;;5031813;28;20477;-60
2022/05/20 09:02:06;;;;;;;5.90;5.15;;;29.10;90.10;;;;;;5023937;28;20025;-60
2022/05/20 09:04:31;;;;;;;11.80;5.60;;;29.50;89.20;;;;;;5023306;28;20168;-59
2022/05/20 09:07:12;;;;;;;8.32;5.35;;;29.50;86.30;;;;;;5031685;28;20045;-57
2022/05/20 09:09:46;;;;;;;8.50;4.88;;;29.10;88.10;;;;;;5029600;28;20144;-59
2022/05/20 09:12:28;;;;;;;7.97;5.55;;;28.90;88.30;;;;;;5025696;28;20022;-60
2022/05/20 09:18:03;;;;;;;6.85;4.22;;;28.10;90.20;;;;;;5026581;28;20053;-61
2022/05/20 09:20:29;;;;;;;9.25;5.10;;;27.90;91.10;;;;;;5018441;28;20064;-60
2022/05/20 09:23:02;;;;;;;5.53;4.40;;;27.80;91.60;;;;;;5020686;28;20029;-59
2022/05/20 09:25:30;;;;;;;8.40;5.20;;;27.90;91.80;;;;;;5022100;28;20033;-60
2022/05/20 09:28:38;;;;;;;7.70;4.53;;;27.70;90.40;;;;;;5023183;28;20029;-60
2022/05/20 09:31:12;;;;;;;9.95;4.22;;;28.30;90.50;;;;;;5018009;28;20041;-57
2022/05/20 09:33:38;;;;;;;4.93;3.78;;;28.80;91.30;;;;;;5023769;28;20562;-58
2022/05/20 09:36:05;;;;;;;7.80;5.03;;;29.30;90.20;;;;;;5030843;28;20503;-58
2022/05/20 09:38:42;;;;;;;7.18;5.20;;;29.60;88.10;;;;;;5019974;28;20038;-60
2022/05/20 09:41:12;;;;;;;6.70;4.10;;;29.90;85.30;;;;;;5025423;28;20116;-60
2022/05/20 09:43:41;;;;;;;6.10;4.70;;;30.60;85.80;;;;;;5021678;28;20088;-60
2022/05/20 09:46:26;;;;;;;4.93;4.43;;;30.10;83.50;;;;;;5026164;28;20091;-60
2022/05/20 09:49:05;;;;;;;4.72;3.78;;;29.40;85.90;;;;;;5020834;28;20037;-60
2022/05/20 09:51:34;;;;;;;6.55;3.63;;;29.00;88.90;;;;;;5020814;28;20025;-60
2022/05/20 09:54:18;;;;;;;6.38;4.18;;;28.90;90.60;;;;;;5032096;28;20510;-60
2022/05/20 09:56:46;;;;;;;11.80;4.68;;;29.60;89.50;;;;;;5028837;28;20380;-60
2022/05/20 09:59:26;;;;;;;6.75;5.10;;;29.80;89.60;;;;;;5024055;28;20037;-60
2022/05/20 10:01:58;;;;;;;12.38;3.97;;;30.30;82.60;;;;;;5016246;28;20630;-60
2022/05/20 10:04:46;;;;;;;5.85;3.53;;;30.20;84.70;;;;;;5029248;28;20029;-59
2022/05/20 10:07:23;;;;;;;7.88;4.25;;;30.10;87.00;;;;;;5030456;28;20110;-59
2022/05/20 10:09:58;;;;;;;9.18;4.63;;;29.70;85.00;;;;;;5023883;28;20018;-59
2022/05/20 10:12:34;;;;;;;6.82;5.10;;;29.30;86.40;;;;;;5030457;28;20032;-60
2022/05/20 10:15:04;;;;;;;5.63;4.47;;;29.30;88.70;;;;;;5030204;28;20124;-54
2022/05/20 10:17:48;;;;;;;6.40;4.43;;;29.10;89.20;;;;;;5006531;28;20057;-59
2022/05/20 10:20:24;;;;;;;9.00;5.28;;;28.80;90.30;;;;;;5027590;28;20029;-60
2022/05/20 10:23:03;;;;;;;5.28;3.45;;;29.10;91.00;;;;;;5024049;28;20026;-60
2022/05/20 10:25:54;;;;;;;9.88;5.55;;;29.20;88.70;;;;;;5030274;28;20038;-60
2022/05/20 10:34:29;;;;;;;8.00;4.53;;;28.70;90.10;;;;;;5018831;28;20071;-60
2022/05/20 10:37:25;;;;;;;10.15;4.00;;;29.10;91.90;;;;;;5015003;28;20030;-60
2022/05/20 10:40:09;;;;;;;8.95;4.13;;;29.20;90.30;;;;;;5025584;28;20025;-60
2022/05/20 10:42:52;;;;;;;6.13;4.32;;;29.40;90.30;;;;;;5024368;28;20045;-60
2022/05/20 10:48:43;;;;;;;10.15;4.15;;;29.00;89.00;;;;;;5029955;28;20422;-59
2022/05/20 10:51:25;;;;;;;6.38;3.97;;;28.90;91.00;;;;;;5012786;28;20030;-60
2022/05/20 10:54:12;;;;;;;6.95;4.32;;;28.70;90.90;;;;;;5017756;28;20261;-59
2022/05/20 10:56:56;;;;;;;11.70;4.15;;;28.70;91.20;;;;;;5029049;28;20040;-60
2022/05/20 11:00:01;;;;;;;5.80;3.80;;;28.80;92.00;;;;;;5023771;28;20156;-59
2022/05/20 11:02:51;;;;;;;6.47;4.50;;;28.10;90.80;;;;;;5025344;28;20037;-60
2022/05/20 11:05:38;;;;;;;7.75;4.47;;;28.10;92.30;;;;;;5026050;28;20025;-60
2022/05/20 11:08:15;;;;;;;7.30;4.10;;;28.00;91.80;;;;;;5028146;28;20133;-59
2022/05/20 11:10:55;;;;;;;8.27;4.10;;;28.10;92.10;;;;;;5022933;28;20583;-60
2022/05/20 11:13:39;;;;;;;7.15;4.32;;;28.20;92.80;;;;;;5022517;28;20029;-60
2022/05/20 11:16:26;;;;;;;5.55;3.67;;;28.60;91.90;;;;;;5014287;28;20487;-60
2022/05/20 11:19:16;;;;;;;9.70;4.72;;;29.00;92.40;;;;;;5030039;28;20120;-60
2022/05/20 11:22:29;;;;;;;8.10;3.80;;;29.30;90.80;;;;;;5026734;28;20108;-60
2022/05/20 11:25:16;;;;;;;9.25;4.35;;;29.20;91.40;;;;;;4971372;28;20087;-58
2022/05/20 11:27:48;;;;;;;7.63;4.60;;;29.20;90.90;;;;;;5022375;28;20033;-60
2022/05/20 11:30:36;;;;;;;10.02;4.13;;;28.90;91.00;;;;;;5022535;28;20071;-59
2022/05/20 11:33:38;;;;;;;7.35;4.55;;;28.60;91.30;;;;;;5020283;28;20025;-57
2022/05/20 11:36:19;;;;;;;8.55;4.63;;;28.60;92.00;;;;;;5025921;28;20018;-59
2022/05/20 11:39:06;;;;;;;12.32;4.03;;;28.30;91.30;;;;;;5022906;28;20021;-58
2022/05/20 11:42:03;;;;;;;7.53;4.20;;;28.10;92.50;;;;;;5021716;28;20040;-58
2022/05/20 11:44:43;;;;;;;11.55;4.68;;;28.20;93.10;;;;;;5029175;28;20502;-58
2022/05/20 11:47:12;;;;;;;9.68;4.70;;;28.20;93.20;;;;;;5039953;28;20027;-58
2022/05/20 11:50:26;;;;;;;10.77;4.45;;;28.20;93.00;;;;;;5017808;28;20018;-60
2022/05/20 11:53:14;;;;;;;10.90;4.70;;;27.90;93.50;;;;;;5024225;28;20014;-60
2022/05/20 11:55:52;;;;;;;5.70;3.85;;;27.70;94.30;;;;;;5020097;28;20496;-60
2022/05/20 11:58:24;;;;;;;10.48;4.82;;;27.70;94.70;;;;;;5026216;28;20100;-60
2022/05/20 12:00:51;;;;;;;6.40;4.63;;;27.70;94.40;;;;;;5017431;28;20076;-59
2022/05/20 12:03:21;;;;;;;6.80;4.32;;;27.90;94.10;;;;;;5020666;28;20036;-60
2022/05/20 12:05:48;;;;;;;7.70;4.40;;;27.90;92.90;;;;;;5019967;28;20079;-60
2022/05/20 12:08:44;;;;;;;6.82;4.72;;;27.80;93.10;;;;;;5027793;28;20021;-60
2022/05/20 12:11:21;;;;;;;7.65;4.38;;;27.90;92.80;;;;;;5015528;28;20108;-59
2022/05/20 12:14:08;;;;;;;10.20;4.72;;;27.70;93.50;;;;;;5018404;28;20582;-60
2022/05/20 12:17:03;;;;;;;6.43;4.18;;;27.50;94.10;;;;;;4999399;28;20076;-59
2022/05/20 12:25:36;;;;;;;21.88;5.22;;;27.40;94.40;;;;;;5027015;28;20044;-59
2022/05/20 12:28:27;;;;;;;7.88;4.10;;;27.50;93.50;;;;;;5026852;28;20030;-60
2022/05/20 12:31:19;;;;;;;9.65;4.53;;;27.30;95.30;;;;;;5009842;28;20117;-60
2022/05/20 12:34:05;;;;;;;10.18;5.07;;;27.00;94.90;;;;;;5016850;28;20033;-58
2022/05/20 12:36:31;;;;;;;13.23;4.30;;;26.70;95.60;;;;;;5020199;28;20030;-60
2022/05/20 12:39:09;;;;;;;10.50;4.47;;;26.60;96.30;;;;;;5026049;28;20030;-60
2022/05/20 12:41:49;;;;;;;7.50;4.10;;;26.30;97.40;;;;;;5024613;28;20549;-59
2022/05/20 12:44:17;;;;;;;8.52;5.20;;;26.30;98.60;;;;;;5031381;28;20026;-58
2022/05/20 12:47:05;;;;;;;11.85;4.95;;;26.20;97.80;;;;;;5018979;28;20053;-58
2022/05/20 12:49:41;;;;;;;6.88;5.05;;;26.30;97.80;;;;;;5019656;28;21350;-58
2022/05/20 12:52:27;;;;;;;15.52;5.10;;;26.50;98.10;;;;;;5024045;28;20056;-59
2022/05/20 12:54:55;;;;;;;5.95;3.95;;;26.50;98.00;;;;;;5026448;28;20018;-60
2022/05/20 12:57:33;;;;;;;12.27;4.18;;;26.50;98.30;;;;;;5028049;28;20088;-59
2022/05/20 13:00:04;;;;;;;8.82;4.97;;;26.60;98.40;;;;;;5016911;28;20036;-59
2022/05/20 13:02:33;;;;;;;12.63;4.95;;;26.50;98.00;;;;;;5021565;28;20531;-59
2022/05/20 13:05:07;;;;;;;8.95;5.45;;;26.30;98.30;;;;;;5031261;28;20029;-59
2022/05/20 13:07:34;;;;;;;;;;;26.30;98.80;;;;;;5027431;28;20025;-60
2022/05/20 13:09:59;;;;;;;12.40;5.03;;;25.90;99.40;;;;;;5020429;28;20415;-60
2022/05/20 13:12:25;;;;;;;10.43;4.93;;;25.80;99.90;;;;;;5026569;28;20037;-59
2022/05/20 13:15:04;;;;;;;9.23;5.30;;;25.70;99.90;;;;;;5023310;28;20087;-60
2022/05/20 13:17:33;;;;;;;9.23;5.15;;;25.50;99.90;;;;;;5004553;28;20570;-59
2022/05/20 13:20:01;;;;;;;10.10;5.07;;;25.50;99.90;;;;;;5028822;28;20018;-60
2022/05/20 13:22:28;;;;;;;13.52;5.28;;;25.40;99.90;;;;;;5031366;28;20160;-60
2022/05/20 13:25:00;;;;;;;7.97;5.40;;;25.40;99.90;;;;;;5023281;28;20434;-60
2022/05/20 13:27:26;;;;;;;12.32;5.60;;;25.60;99.90;;;;;;5027568;28;20029;-58
2022/05/20 13:29:52;;;;;;;7.32;5.10;;;25.80;99.90;;;;;;5035861;28;20021;-59
2022/05/20 13:32:30;;;;;;;11.75;5.60;;;26.10;99.90;;;;;;5027773;28;20025;-59
2022/05/20 13:34:59;;;;;;;9.75;5.53;;;26.30;99.90;;;;;;5029731;28;20313;-60
2022/05/20 13:37:30;;;;;;;7.22;5.22;;;26.50;99.90;;;;;;5033352;28;20053;-59
2022/05/20 13:40:01;;;;;;;7.05;5.03;;;26.70;99.90;;;;;;5029336;28;20407;-59